Time;durP1;ratioP1;P1;durP2;ratioP2;P2;SDS_P1;SDS_P2;PMS_P1;PMS_P2;Temp;Humidity;BMP_temperature;BMP_pressure;BME280_temperature;BME280_humidity;BME280_pressure;Samples;Min_cycle;Max_cycle;Signal;HPM_P1;HPM_P2
2024/01/14 00:01:39;;;;;;;48.33;26.13;;;5.00;76.40;;;;;;5021887;28;20056;-57
2024/01/14 00:04:06;;;;;;;54.50;27.17;;;5.00;76.50;;;;;;5026804;28;20045;-57
2024/01/14 00:06:35;;;;;;;50.78;26.95;;;5.00;76.40;;;;;;5027021;28;20120;-56
2024/01/14 00:09:02;;;;;;;50.67;26.70;;;5.00;76.60;;;;;;5023736;28;20137;-55
2024/01/14 00:11:28;;;;;;;51.30;26.67;;;5.00;76.60;;;;;;5018687;28;20455;-57
2024/01/14 00:13:55;;;;;;;54.35;27.42;;;5.00;76.60;;;;;;5023876;28;20057;-56
2024/01/14 00:16:25;;;;;;;52.13;26.25;;;5.00;76.60;;;;;;5026249;28;20063;-57
2024/01/14 00:18:52;;;;;;;48.35;26.27;;;5.00;76.50;;;;;;5024464;28;20052;-57
2024/01/14 00:21:22;;;;;;;57.22;27.58;;;5.00;76.50;;;;;;5026015;28;20617;-57
2024/01/14 00:23:52;;;;;;;48.75;25.70;;;5.00;76.50;;;;;;5024129;28;20048;-55
2024/01/14 00:26:27;;;;;;;55.28;27.13;;;5.00;76.50;;;;;;5025435;28;20038;-55
2024/01/14 00:29:04;;;;;;;51.40;27.35;;;5.00;76.70;;;;;;5021456;28;20507;-55
2024/01/14 00:31:37;;;;;;;49.05;26.95;;;5.00;76.40;;;;;;5019771;28;20085;-57
2024/01/14 00:34:15;;;;;;;53.90;26.02;;;5.00;76.50;;;;;;5025897;28;20067;-56
2024/01/14 00:36:41;;;;;;;50.40;27.08;;;5.00;76.50;;;;;;5022871;28;20049;-55
2024/01/14 00:39:08;;;;;;;50.90;25.70;;;5.00;76.40;;;;;;5025744;28;20080;-55
2024/01/14 00:41:35;;;;;;;44.03;24.40;;;5.00;76.40;;;;;;5017004;28;20046;-56
2024/01/14 00:44:04;;;;;;;54.60;26.33;;;5.00;76.40;;;;;;5023729;28;20116;-57
2024/01/14 00:46:32;;;;;;;51.55;26.55;;;5.00;76.50;;;;;;5019135;28;20041;-57
2024/01/14 00:48:59;;;;;;;50.05;25.73;;;5.00;76.40;;;;;;5022580;28;20123;-56
2024/01/14 00:51:30;;;;;;;50.95;27.55;;;5.00;76.40;;;;;;5015373;28;20060;-55
2024/01/14 00:54:03;;;;;;;50.90;26.27;;;5.00;76.40;;;;;;5026339;28;20428;-56
2024/01/14 00:56:33;;;;;;;52.38;26.45;;;5.00;77.00;;;;;;5019553;28;20055;-56
2024/01/14 00:59:02;;;;;;;52.47;27.33;;;5.00;76.40;;;;;;5022169;28;20132;-55
2024/01/14 01:01:31;;;;;;;49.53;27.00;;;5.00;76.40;;;;;;5026852;28;20461;-58
2024/01/14 01:04:03;;;;;;;50.75;27.15;;;5.00;76.40;;;;;;5026081;28;20594;-55
2024/01/14 01:06:29;;;;;;;49.00;25.73;;;5.00;76.40;;;;;;5018891;28;20049;-55
2024/01/14 01:08:56;;;;;;;50.90;27.48;;;5.00;76.30;;;;;;5024717;28;20123;-57
2024/01/14 01:11:23;;;;;;;45.15;26.42;;;5.00;76.30;;;;;;5017477;28;20045;-55
2024/01/14 01:13:50;;;;;;;45.97;25.48;;;5.00;76.30;;;;;;5021310;28;20096;-55
2024/01/14 01:16:19;;;;;;;51.50;27.20;;;5.00;76.30;;;;;;5025996;28;20116;-56
2024/01/14 01:18:58;;;;;;;47.58;24.95;;;5.00;76.30;;;;;;5022840;28;20590;-57
2024/01/14 01:21:25;;;;;;;51.33;25.85;;;5.00;76.30;;;;;;5026054;28;20507;-57
2024/01/14 01:23:55;;;;;;;53.42;26.55;;;5.00;76.20;;;;;;5026361;28;20045;-54
2024/01/14 01:26:26;;;;;;;50.03;27.50;;;5.00;76.30;;;;;;5025497;28;20059;-57
2024/01/14 01:28:57;;;;;;;33.23;17.90;;;5.00;76.30;;;;;;5013617;28;20128;-55
2024/01/14 01:31:28;;;;;;;47.88;24.95;;;5.00;76.30;;;;;;5019093;28;20287;-57
2024/01/14 01:34:12;;;;;;;51.13;27.10;;;5.00;76.30;;;;;;5026169;28;20061;-56
2024/01/14 01:36:45;;;;;;;48.60;24.92;;;5.00;76.30;;;;;;5021543;28;20480;-57
2024/01/14 01:39:14;;;;;;;53.33;26.23;;;5.00;76.20;;;;;;5023570;28;20553;-55
2024/01/14 01:41:46;;;;;;;51.13;25.87;;;5.00;76.30;;;;;;5005122;28;20057;-55
2024/01/14 01:44:18;;;;;;;52.60;27.95;;;5.00;76.20;;;;;;5006907;28;20097;-57
2024/01/14 01:46:45;;;;;;;48.60;25.58;;;5.00;76.10;;;;;;5025894;28;20547;-56
2024/01/14 01:49:12;;;;;;;49.40;25.77;;;5.00;76.20;;;;;;5022913;28;20408;-56
2024/01/14 01:51:48;;;;;;;49.00;27.95;;;5.00;76.20;;;;;;5024066;28;20083;-57
2024/01/14 01:54:26;;;;;;;47.53;25.20;;;5.00;76.30;;;;;;5029693;28;20094;-55
2024/01/14 01:56:57;;;;;;;47.30;25.02;;;5.00;76.30;;;;;;5024392;28;20055;-57
2024/01/14 01:59:24;;;;;;;49.17;27.23;;;5.00;76.20;;;;;;5021587;28;20045;-56
2024/01/14 02:01:58;;;;;;;;;;;5.00;76.20;;;;;;5027223;28;20077;-55
2024/01/14 02:04:29;;;;;;;48.05;23.45;;;5.00;76.40;;;;;;5021556;28;20361;-57
2024/01/14 02:07:01;;;;;;;48.85;25.58;;;5.00;75.90;;;;;;5029489;28;20064;-57
2024/01/14 02:09:28;;;;;;;44.30;23.42;;;5.00;76.00;;;;;;5026771;28;20107;-56
2024/01/14 02:12:01;;;;;;;54.50;26.10;;;5.00;76.10;;;;;;5012745;28;20096;-58
2024/01/14 02:14:32;;;;;;;51.65;26.27;;;5.00;76.20;;;;;;5019495;28;20411;-55
2024/01/14 02:16:59;;;;;;;53.88;26.75;;;4.90;76.10;;;;;;5025361;28;20087;-58
2024/01/14 02:19:33;;;;;;;52.60;25.83;;;5.00;76.20;;;;;;5027990;28;20045;-56
2024/01/14 02:22:10;;;;;;;56.67;27.10;;;5.00;76.20;;;;;;5011721;28;20116;-58
2024/01/14 02:24:38;;;;;;;53.20;26.83;;;5.00;76.30;;;;;;5018732;28;20050;-57
2024/01/14 02:27:05;;;;;;;48.33;26.10;;;5.00;76.30;;;;;;5019817;28;20064;-58
2024/01/14 02:29:35;;;;;;;47.85;26.15;;;4.90;76.20;;;;;;5028351;28;20144;-57
2024/01/14 02:32:10;;;;;;;54.15;26.25;;;5.00;76.30;;;;;;5028827;28;20049;-55
2024/01/14 02:34:38;;;;;;;48.38;26.35;;;5.00;76.40;;;;;;5027666;28;20049;-57
2024/01/14 02:37:06;;;;;;;46.80;25.35;;;5.00;76.40;;;;;;5023033;28;20569;-58
2024/01/14 02:39:40;;;;;;;52.08;26.05;;;5.10;76.40;;;;;;5021606;28;20573;-57
2024/01/14 02:42:07;;;;;;;52.22;26.65;;;5.00;76.40;;;;;;5022483;28;20038;-57
2024/01/14 02:44:39;;;;;;;55.53;27.45;;;5.00;76.30;;;;;;5028879;28;20045;-56
2024/01/14 02:47:05;;;;;;;;;;;5.00;76.30;;;;;;5028249;28;20041;-55
2024/01/14 02:49:35;;;;;;;48.83;22.50;;;5.00;76.40;;;;;;5019360;28;19948;-53
2024/01/14 02:52:02;;;;;;;51.47;26.15;;;5.00;75.70;;;;;;5029216;28;20111;-56
2024/01/14 02:54:29;;;;;;;48.30;26.38;;;4.90;75.70;;;;;;5020460;28;20072;-52
2024/01/14 02:56:56;;;;;;;56.38;26.77;;;4.90;75.90;;;;;;5028285;28;20053;-54
2024/01/14 02:59:30;;;;;;;48.55;24.73;;;4.90;75.90;;;;;;5021812;28;20060;-55
2024/01/14 03:01:56;;;;;;;50.85;25.90;;;4.80;75.80;;;;;;5028097;28;20041;-55
2024/01/14 03:04:27;;;;;;;45.72;23.60;;;4.80;75.80;;;;;;5028299;28;20045;-55
2024/01/14 03:06:54;;;;;;;46.78;25.35;;;4.70;75.80;;;;;;5016365;28;20064;-53
2024/01/14 03:09:21;;;;;;;51.75;26.52;;;4.70;75.90;;;;;;5026328;28;20047;-56
2024/01/14 03:11:54;;;;;;;50.20;25.88;;;4.70;76.10;;;;;;5024534;28;20088;-55
2024/01/14 03:14:34;;;;;;;48.50;25.13;;;4.60;76.20;;;;;;5027956;28;20052;-53
2024/01/14 03:17:04;;;;;;;49.70;24.85;;;4.60;76.40;;;;;;5027505;28;20064;-55
2024/01/14 03:19:33;;;;;;;47.88;24.77;;;4.50;76.50;;;;;;5025548;28;20122;-53
2024/01/14 03:22:01;;;;;;;44.13;24.05;;;4.50;76.80;;;;;;5024794;28;20508;-53
2024/01/14 03:24:28;;;;;;;49.90;25.77;;;4.50;76.90;;;;;;5027147;28;20140;-56
2024/01/14 03:27:00;;;;;;;50.95;25.20;;;4.50;77.10;;;;;;5027751;28;20053;-52
2024/01/14 03:29:27;;;;;;;48.72;23.58;;;4.50;77.20;;;;;;5024867;28;20061;-53
2024/01/14 03:31:58;;;;;;;47.72;22.75;;;4.40;77.40;;;;;;5027718;28;20048;-55
2024/01/14 03:34:27;;;;;;;48.83;25.33;;;4.50;77.40;;;;;;5027101;28;20048;-56
2024/01/14 03:36:59;;;;;;;45.40;24.00;;;4.50;77.70;;;;;;5025287;28;20053;-54
2024/01/14 03:39:26;;;;;;;52.45;23.73;;;4.50;77.70;;;;;;5008685;28;20411;-54
2024/01/14 03:41:55;;;;;;;47.67;23.52;;;4.50;77.70;;;;;;5023592;28;20049;-56
2024/01/14 03:44:23;;;;;;;45.13;22.90;;;4.50;77.80;;;;;;5027643;28;20048;-56
2024/01/14 03:46:50;;;;;;;45.03;23.40;;;4.50;77.90;;;;;;5027296;28;20550;-56
2024/01/14 03:49:19;;;;;;;51.60;23.73;;;4.50;77.90;;;;;;5024933;28;20069;-55
2024/01/14 03:51:45;;;;;;;49.30;24.15;;;4.50;77.80;;;;;;5026292;28;20038;-54
2024/01/14 03:54:14;;;;;;;46.58;23.30;;;4.50;77.70;;;;;;5027172;28;20045;-55
2024/01/14 03:56:50;;;;;;;45.20;23.05;;;4.50;77.60;;;;;;5027813;28;20133;-54
2024/01/14 03:59:17;;;;;;;46.10;24.15;;;4.50;77.50;;;;;;5022497;28;20491;-54
2024/01/14 04:01:44;;;;;;;46.25;24.65;;;4.50;77.60;;;;;;5009010;28;20053;-54
2024/01/14 04:04:13;;;;;;;46.28;22.65;;;4.50;77.60;;;;;;5027559;28;20553;-55
2024/01/14 04:06:39;;;;;;;46.90;24.15;;;4.50;77.70;;;;;;5008902;28;20081;-55
2024/01/14 04:09:12;;;;;;;42.10;22.35;;;4.50;77.90;;;;;;5008159;28;20061;-55
2024/01/14 04:11:41;;;;;;;45.40;22.98;;;4.50;77.90;;;;;;5023653;28;20054;-55
2024/01/14 04:14:15;;;;;;;50.97;23.58;;;4.50;78.00;;;;;;5026632;28;20781;-55
2024/01/14 04:16:47;;;;;;;46.88;23.85;;;4.50;78.00;;;;;;5026799;28;20523;-56
2024/01/14 04:19:13;;;;;;;44.65;24.02;;;4.50;78.00;;;;;;5026427;28;20049;-53
2024/01/14 04:21:45;;;;;;;50.45;23.90;;;4.50;77.90;;;;;;5001199;28;20048;-56
2024/01/14 04:24:13;;;;;;;46.15;24.70;;;4.50;77.90;;;;;;5026630;28;20419;-54
2024/01/14 04:26:39;;;;;;;48.35;24.05;;;4.50;77.90;;;;;;5026554;28;20046;-54
2024/01/14 04:29:06;;;;;;;47.90;24.33;;;4.50;77.90;;;;;;5025752;28;20197;-56
2024/01/14 04:31:33;;;;;;;46.95;23.48;;;4.50;78.00;;;;;;5021750;28;20099;-54
2024/01/14 04:34:03;;;;;;;45.58;23.83;;;4.40;78.00;;;;;;5009711;28;20045;-54
2024/01/14 04:36:31;;;;;;;52.40;24.27;;;4.50;78.10;;;;;;5026647;28;20108;-53
2024/01/14 04:38:58;;;;;;;44.88;23.33;;;4.50;78.00;;;;;;5020897;28;20060;-55
2024/01/14 04:41:25;;;;;;;46.30;25.35;;;4.50;78.10;;;;;;5018495;28;20128;-56
2024/01/14 04:43:54;;;;;;;44.53;24.52;;;4.50;78.10;;;;;;5026740;28;20588;-56
2024/01/14 04:46:21;;;;;;;50.45;23.88;;;4.50;78.10;;;;;;5026238;28;20041;-55
2024/01/14 04:48:48;;;;;;;51.08;24.73;;;4.50;78.10;;;;;;5023827;28;20565;-55
2024/01/14 04:51:18;;;;;;;44.85;23.35;;;4.50;78.10;;;;;;5024619;28;20059;-56
2024/01/14 04:53:45;;;;;;;48.35;23.92;;;4.50;78.10;;;;;;5026536;28;20516;-56
2024/01/14 04:56:12;;;;;;;45.92;23.23;;;4.50;78.00;;;;;;5025579;28;20045;-55
2024/01/14 04:58:39;;;;;;;45.45;22.55;;;4.50;77.90;;;;;;5020281;28;20103;-56
2024/01/14 05:01:06;;;;;;;45.92;23.13;;;4.50;77.90;;;;;;5011491;28;20049;-56
2024/01/14 05:03:39;;;;;;;45.25;23.80;;;4.50;77.80;;;;;;5026431;28;20041;-55
2024/01/14 05:06:08;;;;;;;42.50;22.55;;;4.50;77.90;;;;;;5026770;28;20041;-56
2024/01/14 05:08:35;;;;;;;36.80;19.98;;;4.50;77.80;;;;;;5019123;28;20049;-55
2024/01/14 05:11:01;;;;;;;43.05;22.60;;;4.50;77.80;;;;;;5012291;28;20056;-54
2024/01/14 05:13:30;;;;;;;43.90;21.38;;;4.50;77.90;;;;;;5025794;28;20099;-54
2024/01/14 05:15:59;;;;;;;41.35;21.90;;;4.50;77.80;;;;;;5026211;28;20103;-55
2024/01/14 05:18:26;;;;;;;40.47;21.00;;;4.50;77.90;;;;;;5025306;28;20458;-53
2024/01/14 05:20:53;;;;;;;39.95;21.35;;;4.50;77.90;;;;;;5020967;28;20124;-54
2024/01/14 05:23:21;;;;;;;40.65;22.33;;;4.50;78.00;;;;;;5027567;28;20055;-55
2024/01/14 05:25:48;;;;;;;42.22;20.42;;;4.50;77.90;;;;;;5029025;28;20060;-56
2024/01/14 05:28:15;;;;;;;41.25;21.33;;;4.50;77.90;;;;;;5024369;28;20041;-55
2024/01/14 05:30:41;;;;;;;40.15;20.98;;;4.50;77.90;;;;;;5011134;28;20041;-53
2024/01/14 05:33:08;;;;;;;45.70;23.42;;;4.50;77.90;;;;;;5030673;28;20429;-55
2024/01/14 05:35:35;;;;;;;41.08;21.67;;;4.50;77.90;;;;;;5022780;28;20057;-55
2024/01/14 05:38:06;;;;;;;42.33;21.60;;;4.50;77.90;;;;;;5026861;28;20052;-56
2024/01/14 05:40:33;;;;;;;43.70;21.23;;;4.50;77.90;;;;;;5027823;28;20100;-55
2024/01/14 05:43:06;;;;;;;42.05;20.70;;;4.40;77.90;;;;;;5025953;28;20560;-55
2024/01/14 05:45:32;;;;;;;43.53;21.58;;;4.40;78.00;;;;;;5029578;28;20037;-56
2024/01/14 05:47:59;;;;;;;38.80;20.50;;;4.40;78.00;;;;;;5029581;28;20524;-53
2024/01/14 05:50:26;;;;;;;43.60;21.23;;;4.40;78.10;;;;;;5024296;28;20095;-55
2024/01/14 05:52:53;;;;;;;47.53;22.08;;;4.40;78.00;;;;;;5011750;28;20061;-56
2024/01/14 05:55:19;;;;;;;43.00;20.83;;;4.40;78.00;;;;;;5028888;28;20128;-54
2024/01/14 05:57:46;;;;;;;46.65;21.30;;;4.40;78.10;;;;;;5020362;28;20037;-53
2024/01/14 06:00:13;;;;;;;42.15;21.67;;;4.40;78.10;;;;;;5026653;28;20072;-54
2024/01/14 06:02:43;;;;;;;44.58;21.40;;;4.40;78.10;;;;;;5028552;28;20115;-54
2024/01/14 06:05:12;;;;;;;37.70;20.77;;;4.40;78.00;;;;;;5029780;28;20096;-54
2024/01/14 06:07:39;;;;;;;39.85;21.88;;;4.40;78.10;;;;;;5024294;28;20046;-54
2024/01/14 06:10:09;;;;;;;44.38;20.80;;;4.40;78.00;;;;;;5027867;28;20052;-55
2024/01/14 06:12:40;;;;;;;40.90;21.07;;;4.50;78.00;;;;;;5024302;28;20068;-53
2024/01/14 06:15:07;;;;;;;41.30;20.80;;;4.40;78.00;;;;;;5028534;28;20053;-53
2024/01/14 06:17:34;;;;;;;42.33;20.55;;;4.40;78.00;;;;;;5029359;28;20049;-55
2024/01/14 06:20:00;;;;;;;39.10;21.17;;;4.40;78.00;;;;;;5023112;28;20337;-54
2024/01/14 06:22:30;;;;;;;41.92;21.02;;;4.40;78.10;;;;;;5027818;28;20134;-56
2024/01/14 06:25:02;;;;;;;42.38;20.80;;;4.40;78.00;;;;;;5029081;28;20458;-54
2024/01/14 06:27:31;;;;;;;43.92;21.15;;;4.40;77.90;;;;;;5018863;28;20040;-55
2024/01/14 06:29:58;;;;;;;41.75;20.65;;;4.40;78.00;;;;;;5024940;28;20074;-54
2024/01/14 06:32:25;;;;;;;40.55;20.10;;;4.40;78.00;;;;;;5020740;28;20052;-53
2024/01/14 06:34:51;;;;;;;44.75;21.83;;;4.40;78.00;;;;;;5025132;28;20042;-53
2024/01/14 06:37:18;;;;;;;44.08;20.85;;;4.40;78.10;;;;;;5022703;28;20427;-52
2024/01/14 06:39:45;;;;;;;48.03;21.73;;;4.40;78.00;;;;;;5028312;28;20523;-53
2024/01/14 06:42:14;;;;;;;35.00;18.02;;;4.40;78.00;;;;;;5022394;28;20688;-51
2024/01/14 06:44:43;;;;;;;38.00;18.45;;;4.40;78.00;;;;;;5018576;28;20139;-55
2024/01/14 06:47:12;;;;;;;40.13;19.92;;;4.40;78.00;;;;;;5026777;28;20132;-54
2024/01/14 06:49:40;;;;;;;42.85;19.15;;;4.30;78.10;;;;;;5020079;28;20068;-55
2024/01/14 06:52:11;;;;;;;34.70;19.17;;;4.40;78.20;;;;;;5024890;28;20120;-54
2024/01/14 06:54:38;;;;;;;38.10;19.25;;;4.40;78.20;;;;;;5026269;28;20049;-54
2024/01/14 06:57:15;;;;;;;42.25;19.88;;;4.40;78.10;;;;;;5032542;28;20507;-55
2024/01/14 06:59:45;;;;;;;32.90;16.52;;;4.40;78.20;;;;;;5016762;28;20128;-55
2024/01/14 07:02:15;;;;;;;37.55;18.17;;;4.40;78.00;;;;;;5024820;28;20684;-54
2024/01/14 07:04:49;;;;;;;34.95;18.17;;;4.40;78.00;;;;;;5027315;28;20076;-53
2024/01/14 07:07:33;;;;;;;34.15;17.55;;;4.40;78.00;;;;;;5023914;28;20049;-55
2024/01/14 07:10:00;;;;;;;34.25;17.27;;;4.40;78.00;;;;;;5025858;28;20073;-55
2024/01/14 07:12:35;;;;;;;31.80;16.98;;;4.40;77.90;;;;;;5017198;28;20520;-56
2024/01/14 07:15:04;;;;;;;35.42;18.48;;;4.40;77.90;;;;;;5028091;28;20529;-55
2024/01/14 07:17:35;;;;;;;30.85;16.60;;;4.40;77.90;;;;;;5026209;28;20119;-54
2024/01/14 07:20:22;;;;;;;36.28;16.77;;;4.40;78.00;;;;;;5025319;28;20045;-54
2024/01/14 07:22:54;;;;;;;34.78;16.25;;;4.40;78.00;;;;;;5028971;28;20510;-53
2024/01/14 07:25:20;;;;;;;30.85;15.70;;;4.40;78.00;;;;;;5029070;28;20538;-55
2024/01/14 07:27:47;;;;;;;40.40;19.85;;;4.30;77.90;;;;;;5017021;28;20228;-52
2024/01/14 07:30:18;;;;;;;36.03;16.95;;;4.30;77.90;;;;;;5019727;28;20115;-53
2024/01/14 07:32:48;;;;;;;35.55;17.13;;;4.30;77.90;;;;;;5028165;28;20048;-55
2024/01/14 07:35:20;;;;;;;38.85;18.15;;;4.30;77.90;;;;;;5027388;28;20052;-54
2024/01/14 07:37:47;;;;;;;31.02;17.52;;;4.30;77.90;;;;;;5008951;28;20041;-54
2024/01/14 07:40:14;;;;;;;32.53;16.83;;;4.30;77.90;;;;;;5017572;28;20128;-56
2024/01/14 07:42:42;;;;;;;33.65;16.02;;;4.30;77.90;;;;;;5025108;28;20060;-55
2024/01/14 07:45:10;;;;;;;29.38;15.00;;;4.30;77.90;;;;;;5036260;28;20041;-51
2024/01/14 07:47:36;;;;;;;32.20;17.27;;;4.30;78.00;;;;;;5020559;28;20503;-54
2024/01/14 07:50:04;;;;;;;36.50;15.98;;;4.30;78.00;;;;;;5025585;28;20474;-54
2024/01/14 07:52:30;;;;;;;35.97;17.38;;;4.30;78.00;;;;;;5029697;28;20108;-56
2024/01/14 07:54:58;;;;;;;30.70;16.10;;;4.30;77.90;;;;;;5030477;28;20045;-55
2024/01/14 07:57:25;;;;;;;32.90;16.25;;;4.30;77.90;;;;;;5026619;28;20042;-56
2024/01/14 07:59:52;;;;;;;33.50;16.80;;;4.30;78.00;;;;;;5027869;28;20090;-54
2024/01/14 08:02:20;;;;;;;30.20;16.30;;;4.30;78.00;;;;;;5030712;28;20507;-55
2024/01/14 08:04:47;;;;;;;41.33;18.83;;;4.30;77.90;;;;;;5027885;28;20037;-55
2024/01/14 08:07:14;;;;;;;30.23;15.55;;;4.30;77.80;;;;;;5022687;28;20125;-56
2024/01/14 08:09:42;;;;;;;37.70;16.50;;;4.30;77.70;;;;;;5030377;28;20510;-53
2024/01/14 08:12:08;;;;;;;38.97;18.45;;;4.30;77.80;;;;;;5025629;28;20045;-53
2024/01/14 08:14:35;;;;;;;33.58;17.80;;;4.30;77.90;;;;;;5022309;28;20057;-56
2024/01/14 08:17:02;;;;;;;35.47;16.50;;;4.30;77.80;;;;;;5030061;28;20124;-56
2024/01/14 08:19:28;;;;;;;31.55;16.45;;;4.30;77.90;;;;;;5027154;28;20056;-54
2024/01/14 08:21:55;;;;;;;31.88;16.58;;;4.30;77.80;;;;;;5033711;28;20168;-55
2024/01/14 08:24:22;;;;;;;36.03;17.00;;;4.30;77.90;;;;;;5016419;28;20084;-53
2024/01/14 08:26:49;;;;;;;29.48;15.82;;;4.30;77.70;;;;;;5024133;28;20404;-52
2024/01/14 08:29:16;;;;;;;33.80;16.27;;;4.30;77.60;;;;;;5026885;28;20163;-52
2024/01/14 08:31:52;;;;;;;31.48;17.00;;;4.30;77.70;;;;;;5027623;28;20060;-53
2024/01/14 08:34:18;;;;;;;26.25;13.98;;;4.30;77.60;;;;;;5019473;28;20046;-55
2024/01/14 08:36:45;;;;;;;30.30;14.85;;;4.30;77.70;;;;;;5029978;28;20045;-54
2024/01/14 08:39:12;;;;;;;30.30;14.63;;;4.20;77.70;;;;;;5028342;28;20069;-56
2024/01/14 08:41:39;;;;;;;32.35;15.35;;;4.20;77.70;;;;;;5026353;28;20048;-54
2024/01/14 08:44:06;;;;;;;29.98;14.73;;;4.20;77.80;;;;;;5026077;28;20492;-51
2024/01/14 08:46:36;;;;;;;31.85;15.48;;;4.20;77.90;;;;;;5032283;28;20144;-54
2024/01/14 08:49:03;;;;;;;36.30;17.27;;;4.10;77.90;;;;;;5043827;23;20077;-57
2024/01/14 08:51:30;;;;;;;29.17;15.85;;;4.10;78.10;;;;;;5026963;28;20504;-57
2024/01/14 08:54:00;;;;;;;29.23;15.75;;;4.10;78.20;;;;;;5039420;28;20108;-59
2024/01/14 08:56:30;;;;;;;29.58;15.93;;;4.10;78.40;;;;;;5042239;28;20547;-56
2024/01/14 08:58:58;;;;;;;32.92;17.35;;;4.10;78.40;;;;;;5036512;28;20052;-58
2024/01/14 09:01:26;;;;;;;29.98;16.85;;;4.10;78.40;;;;;;5028304;28;20037;-58
2024/01/14 09:03:53;;;;;;;33.80;17.25;;;4.10;78.40;;;;;;5026931;28;20116;-56
2024/01/14 09:06:20;;;;;;;34.40;17.48;;;4.10;78.40;;;;;;5032781;28;20044;-59
2024/01/14 09:08:47;;;;;;;29.25;16.63;;;4.20;78.50;;;;;;5033504;28;20037;-57
2024/01/14 09:11:14;;;;;;;33.70;17.20;;;4.20;78.30;;;;;;5021052;28;20079;-57
2024/01/14 09:13:40;;;;;;;30.80;15.82;;;4.20;78.40;;;;;;5029797;28;20048;-53
2024/01/14 09:16:08;;;;;;;32.75;16.92;;;4.20;78.40;;;;;;5030994;28;20053;-58
2024/01/14 09:18:36;;;;;;;34.75;17.33;;;4.20;78.40;;;;;;5032660;28;20479;-57
2024/01/14 09:21:04;;;;;;;34.13;18.27;;;4.20;78.30;;;;;;5028951;28;20045;-57
2024/01/14 09:23:31;;;;;;;29.95;17.92;;;4.30;78.30;;;;;;5030473;28;20049;-58
2024/01/14 09:25:58;;;;;;;33.40;17.70;;;4.20;78.20;;;;;;5032954;28;20037;-55
2024/01/14 09:28:29;;;;;;;33.90;16.52;;;4.20;78.20;;;;;;5030532;28;20627;-55
2024/01/14 09:30:56;;;;;;;35.95;20.08;;;4.20;78.10;;;;;;5032120;28;20123;-56
2024/01/14 09:33:23;;;;;;;31.83;16.95;;;4.30;78.20;;;;;;5032279;28;20045;-57
2024/01/14 09:35:50;;;;;;;34.78;17.55;;;4.20;78.20;;;;;;5031426;28;20041;-55
2024/01/14 09:38:16;;;;;;;28.30;16.15;;;4.30;78.20;;;;;;5031194;28;20091;-53
2024/01/14 09:40:43;;;;;;;35.25;20.30;;;4.30;78.20;;;;;;5029736;28;20050;-59
2024/01/14 09:43:11;;;;;;;28.88;17.00;;;4.30;78.20;;;;;;5032460;28;20120;-55
2024/01/14 09:45:40;;;;;;;29.80;17.77;;;4.30;78.00;;;;;;5032380;28;20492;-56
2024/01/14 09:48:15;;;;;;;34.78;20.80;;;4.30;78.00;;;;;;5016158;28;20042;-56
2024/01/14 09:50:42;;;;;;;35.95;19.80;;;4.40;78.20;;;;;;5027546;28;20076;-57
2024/01/14 09:53:14;;;;;;;30.08;17.08;;;4.30;78.10;;;;;;5032748;28;20423;-55
2024/01/14 09:55:41;;;;;;;30.85;15.93;;;4.30;78.00;;;;;;5032258;28;20407;-55
2024/01/14 09:58:12;;;;;;;28.42;16.13;;;4.40;78.00;;;;;;5029772;28;20044;-56
2024/01/14 10:00:44;;;;;;;29.40;17.00;;;4.30;77.90;;;;;;5020633;28;20047;-57
2024/01/14 10:03:10;;;;;;;33.05;16.52;;;4.30;77.80;;;;;;5032077;28;20065;-56
2024/01/14 10:05:38;;;;;;;32.03;16.08;;;4.30;77.90;;;;;;5031984;28;20100;-56
2024/01/14 10:08:05;;;;;;;30.35;15.55;;;4.30;77.90;;;;;;5027866;28;20840;-57
2024/01/14 10:10:33;;;;;;;26.02;15.07;;;4.30;77.80;;;;;;5026200;28;20559;-54
2024/01/14 10:13:02;;;;;;;27.20;15.70;;;4.30;77.70;;;;;;5028253;28;20080;-56
2024/01/14 10:15:32;;;;;;;30.08;14.88;;;4.30;77.70;;;;;;5029330;28;20045;-56
2024/01/14 10:18:07;;;;;;;30.27;15.55;;;4.30;77.80;;;;;;5027780;28;20899;-57
2024/01/14 10:20:34;;;;;;;26.77;14.68;;;4.30;77.90;;;;;;5020930;28;20045;-56
2024/01/14 10:23:01;;;;;;;32.45;17.02;;;4.30;77.90;;;;;;5026970;28;20683;-57
2024/01/14 10:25:28;;;;;;;28.77;15.30;;;4.30;78.00;;;;;;5031145;28;20049;-55
2024/01/14 10:27:56;;;;;;;32.78;16.10;;;4.30;78.00;;;;;;5025876;28;20033;-56
2024/01/14 10:30:23;;;;;;;29.80;16.27;;;4.30;78.00;;;;;;5013607;28;20037;-57
2024/01/14 10:32:52;;;;;;;29.23;16.48;;;4.30;78.10;;;;;;5031893;28;20030;-54
2024/01/14 10:35:39;;;;;;;25.50;13.98;;;4.30;78.00;;;;;;5025503;28;20052;-56
2024/01/14 10:38:06;;;;;;;24.92;13.65;;;4.30;77.90;;;;;;5030522;28;20084;-57
2024/01/14 10:40:33;;;;;;;36.50;19.48;;;4.40;78.20;;;;;;5028563;28;20046;-55
2024/01/14 10:43:02;;;;;;;26.70;14.52;;;4.30;78.10;;;;;;5027978;28;20527;-56
2024/01/14 10:45:28;;;;;;;24.92;13.30;;;4.40;78.20;;;;;;5030978;28;20555;-54
2024/01/14 10:47:59;;;;;;;26.52;14.43;;;4.40;78.00;;;;;;5031396;28;20045;-56
2024/01/14 10:50:27;;;;;;;22.38;13.73;;;4.40;78.00;;;;;;5027188;28;20507;-55
2024/01/14 10:53:16;;;;;;;23.00;12.07;;;4.40;78.10;;;;;;5028631;28;20030;-57
2024/01/14 10:55:50;;;;;;;22.48;12.63;;;4.40;78.20;;;;;;5031242;28;20052;-57
2024/01/14 10:58:27;;;;;;;23.60;13.93;;;4.40;78.10;;;;;;5022573;28;20052;-57
2024/01/14 11:00:59;;;;;;;23.08;13.52;;;4.40;78.10;;;;;;5033507;28;20514;-59
2024/01/14 11:03:28;;;;;;;23.88;12.48;;;4.40;78.10;;;;;;5030812;28;20169;-55
2024/01/14 11:05:55;;;;;;;26.02;13.50;;;4.40;78.10;;;;;;5030658;28;20060;-58
2024/01/14 11:08:25;;;;;;;25.40;14.35;;;4.40;78.20;;;;;;5034622;28;20033;-57
2024/01/14 11:10:53;;;;;;;28.60;15.27;;;4.40;78.20;;;;;;5022843;28;20060;-58
2024/01/14 11:13:31;;;;;;;25.33;13.95;;;4.40;78.30;;;;;;5035393;28;20133;-57
2024/01/14 11:16:07;;;;;;;27.75;14.95;;;4.50;78.40;;;;;;5023512;28;20042;-59
2024/01/14 11:18:57;;;;;;;23.98;12.98;;;4.50;78.20;;;;;;5031871;28;20052;-57
2024/01/14 11:21:42;;;;;;;28.02;13.75;;;4.50;78.00;;;;;;5030023;28;20124;-58
2024/01/14 11:24:29;;;;;;;26.05;14.23;;;4.50;78.00;;;;;;5025206;28;20048;-58
2024/01/14 11:26:57;;;;;;;24.92;13.50;;;4.50;77.90;;;;;;5031276;28;20407;-57
2024/01/14 11:29:33;;;;;;;26.02;14.35;;;4.50;77.90;;;;;;5030771;28;20038;-59
2024/01/14 11:32:03;;;;;;;26.40;15.50;;;4.60;77.90;;;;;;5028511;28;20043;-59
2024/01/14 11:34:50;;;;;;;26.52;13.65;;;4.60;77.80;;;;;;5024058;28;20041;-55
2024/01/14 11:37:29;;;;;;;27.45;13.80;;;4.60;77.70;;;;;;5033748;28;20495;-58
2024/01/14 11:40:13;;;;;;;25.65;13.50;;;4.60;77.40;;;;;;5025466;28;20508;-59
2024/01/14 11:42:56;;;;;;;24.20;13.80;;;4.60;77.40;;;;;;5032223;28;20049;-59
2024/01/14 11:45:23;;;;;;;23.15;12.75;;;4.60;77.30;;;;;;5030273;28;20084;-58
2024/01/14 11:47:56;;;;;;;24.38;13.70;;;4.50;77.20;;;;;;5024391;28;20504;-57
2024/01/14 11:50:26;;;;;;;24.38;12.75;;;4.50;77.20;;;;;;5028704;28;20558;-57
2024/01/14 11:52:56;;;;;;;22.95;11.90;;;4.50;77.20;;;;;;5031626;28;20061;-57
2024/01/14 11:55:30;;;;;;;22.98;13.30;;;4.50;77.20;;;;;;5029654;28;20057;-59
2024/01/14 11:58:28;;;;;;;26.88;15.30;;;4.50;77.30;;;;;;5029998;28;20041;-58
2024/01/14 12:00:56;;;;;;;25.08;13.38;;;4.50;77.50;;;;;;5009259;28;20053;-58
2024/01/14 12:03:23;;;;;;;22.05;12.88;;;4.50;77.40;;;;;;5032279;28;20389;-58
2024/01/14 12:05:50;;;;;;;23.75;13.63;;;4.50;77.30;;;;;;5027303;28;20037;-58
2024/01/14 12:08:18;;;;;;;23.60;13.30;;;4.50;77.20;;;;;;5031508;28;20041;-58
2024/01/14 12:10:46;;;;;;;23.48;13.30;;;4.50;77.00;;;;;;5026318;28;20050;-57
2024/01/14 12:13:14;;;;;;;24.83;13.32;;;4.50;77.00;;;;;;5028564;28;20037;-58
2024/01/14 12:15:41;;;;;;;28.08;13.73;;;4.50;77.10;;;;;;5029036;28;20045;-58
2024/01/14 12:18:21;;;;;;;24.33;13.95;;;4.50;77.10;;;;;;5031005;28;20045;-58
2024/01/14 12:20:48;;;;;;;24.70;14.18;;;4.50;77.20;;;;;;5023402;28;20049;-59
2024/01/14 12:23:16;;;;;;;24.85;13.90;;;4.50;77.20;;;;;;5025935;28;20076;-60
2024/01/14 12:25:43;;;;;;;24.38;13.55;;;4.50;77.10;;;;;;5009195;28;20054;-59
2024/01/14 12:28:10;;;;;;;23.30;13.35;;;4.50;77.20;;;;;;5024245;28;20099;-59
2024/01/14 12:30:36;;;;;;;24.60;13.38;;;4.50;77.20;;;;;;5022549;28;20048;-57
2024/01/14 12:33:07;;;;;;;25.20;12.88;;;4.50;77.20;;;;;;5027195;28;20049;-58
2024/01/14 12:35:36;;;;;;;20.33;11.95;;;4.50;77.10;;;;;;5023956;28;20124;-57
2024/01/14 12:38:08;;;;;;;22.35;12.80;;;4.50;76.90;;;;;;5025706;28;20534;-57
2024/01/14 12:40:36;;;;;;;24.60;12.50;;;4.60;77.00;;;;;;5019525;28;20057;-54
2024/01/14 12:43:06;;;;;;;20.70;11.88;;;4.50;77.10;;;;;;5004637;28;20488;-56
2024/01/14 12:45:33;;;;;;;24.05;12.43;;;4.50;77.00;;;;;;5023935;28;20156;-59
2024/01/14 12:48:04;;;;;;;20.55;11.15;;;4.50;76.90;;;;;;5021238;28;20415;-59
2024/01/14 12:50:38;;;;;;;27.38;12.82;;;4.50;77.00;;;;;;5022855;28;20095;-60